Time;durP1;ratioP1;P1;durP2;ratioP2;P2;SDS_P1;SDS_P2;PMS_P1;PMS_P2;Temp;Humidity;BMP_temperature;BMP_pressure;BME280_temperature;BME280_humidity;BME280_pressure;Samples;Min_cycle;Max_cycle;Signal;HPM_P1;HPM_P2
2022/08/22 05:14:28;;;;;;;1.83;0.80;;;;;;;;;;10565790;27;20350;-78
2022/08/22 05:19:35;;;;;;;0.98;0.70;;;;;;;;;;10565995;28;20043;-78
2022/08/22 05:24:42;;;;;;;0.70;0.50;;;;;;;;;;10565163;28;20052;-78
2022/08/22 05:29:50;;;;;;;0.75;0.50;;;;;;;;;;10566539;28;20040;-78
2022/08/22 05:34:59;;;;;;;0.40;0.35;;;;;;;;;;10562989;28;20040;-78
2022/08/22 05:40:02;;;;;;;1.75;0.70;;;;;;;;;;10556980;28;20113;-78
2022/08/22 05:45:08;;;;;;;0.50;0.50;;;;;;;;;;10531994;28;20040;-78
2022/08/22 05:50:16;;;;;;;1.63;0.55;;;;;;;;;;10552343;28;20064;-78
2022/08/22 05:55:26;;;;;;;0.65;0.47;;;;;;;;;;10564766;28;20060;-78
2022/08/22 06:00:38;;;;;;;0.45;0.45;;;;;;;;;;10562525;28;20063;-78
2022/08/22 06:05:47;;;;;;;1.25;0.57;;;;;;;;;;10484411;28;20519;-78
2022/08/22 06:10:54;;;;;;;2.20;0.65;;;;;;;;;;10430694;28;20061;-78
2022/08/22 06:16:07;;;;;;;1.30;0.50;;;;;;;;;;10398937;28;20045;-78
2022/08/22 06:21:17;;;;;;;1.52;0.50;;;;;;;;;;10392310;28;20041;-78
2022/08/22 06:26:21;;;;;;;0.40;0.40;;;;;;;;;;10358877;28;20038;-78
2022/08/22 06:31:31;;;;;;;1.30;0.55;;;;;;;;;;10366562;28;20038;-78
2022/08/22 06:36:37;;;;;;;1.15;0.60;;;;;;;;;;10367057;28;20038;-78
2022/08/22 06:41:42;;;;;;;;;;;;;;;;;;10365690;28;20045;-76
2022/08/22 06:46:53;;;;;;;3.45;0.50;;;;;;;;;;10356556;28;19975;-76
2022/08/22 06:52:01;;;;;;;2.70;1.10;;;;;;;;;;10345048;28;20064;-78
2022/08/22 06:57:06;;;;;;;1.70;0.70;;;;;;;;;;10367450;28;20048;-78
2022/08/22 07:02:24;;;;;;;1.27;0.70;;;;;;;;;;10364216;28;20513;-78
2022/08/22 07:07:28;;;;;;;1.92;0.50;;;;;;;;;;10364114;28;20042;-78
2022/08/22 07:12:36;;;;;;;2.33;0.90;;;;;;;;;;10362677;28;20054;-78
2022/08/22 07:17:50;;;;;;;1.65;0.50;;;;;;;;;;10370902;28;20116;-75
2022/08/22 07:22:56;;;;;;;1.20;0.47;;;;;;;;;;10400908;28;20608;-76
2022/08/22 07:28:20;;;;;;;2.55;0.80;;;;;;;;;;10402166;28;20053;-76
2022/08/22 07:33:45;;;;;;;1.42;0.60;;;;;;;;;;10400759;28;20041;-75
2022/08/22 07:38:59;;;;;;;1.33;0.60;;;;;;;;;;10399582;28;20038;-76
2022/08/22 07:44:17;;;;;;;0.90;0.52;;;;;;;;;;10395576;28;20072;-76
2022/08/22 07:49:26;;;;;;;1.58;0.50;;;;;;;;;;10397777;28;20061;-76
2022/08/22 07:54:38;;;;;;;1.17;0.60;;;;;;;;;;10433625;28;20072;-76
2022/08/22 07:59:47;;;;;;;1.58;0.70;;;;;;;;;;10412393;28;20068;-77
2022/08/22 08:04:55;;;;;;;1.20;0.50;;;;;;;;;;10432720;28;20516;-74
2022/08/22 08:10:02;;;;;;;0.40;0.40;;;;;;;;;;10399093;28;20603;-73
2022/08/22 08:15:09;;;;;;;0.88;0.40;;;;;;;;;;10400686;28;20132;-78
2022/08/22 08:20:19;;;;;;;2.75;0.75;;;;;;;;;;10435049;28;20049;-79
2022/08/22 08:25:30;;;;;;;2.53;0.70;;;;;;;;;;10393171;28;20194;-76
2022/08/22 08:30:37;;;;;;;1.02;0.60;;;;;;;;;;10398718;28;20065;-76
2022/08/22 08:35:44;;;;;;;1.55;0.60;;;;;;;;;;10394121;28;20116;-75
2022/08/22 08:41:05;;;;;;;1.92;0.90;;;;;;;;;;10397838;28;20041;-76
2022/08/22 08:46:46;;;;;;;1.25;0.60;;;;;;;;;;10393134;28;20128;-78
2022/08/22 08:52:10;;;;;;;0.90;0.60;;;;;;;;;;10395763;28;20128;-76
2022/08/22 08:57:20;;;;;;;1.05;0.50;;;;;;;;;;10390545;28;20382;-76
2022/08/22 09:02:46;;;;;;;0.80;0.50;;;;;;;;;;10430629;28;20169;-77
2022/08/22 09:08:28;;;;;;;2.17;0.75;;;;;;;;;;10397679;28;20049;-77
2022/08/22 09:13:49;;;;;;;0.98;0.68;;;;;;;;;;10405465;28;20099;-76
2022/08/22 09:19:23;;;;;;;0.85;0.57;;;;;;;;;;10402131;28;20119;-76
2022/08/22 09:24:54;;;;;;;1.08;0.70;;;;;;;;;;10402763;28;20068;-78
2022/08/22 09:30:05;;;;;;;0.95;0.57;;;;;;;;;;10401327;28;20048;-76
2022/08/22 09:35:16;;;;;;;1.75;0.75;;;;;;;;;;10394248;28;20042;-75
2022/08/22 09:40:28;;;;;;;1.40;0.70;;;;;;;;;;10401337;28;20061;-76
2022/08/22 09:45:48;;;;;;;1.20;0.80;;;;;;;;;;10400510;28;20045;-78
2022/08/22 09:51:03;;;;;;;1.60;0.80;;;;;;;;;;10397803;28;20757;-78
2022/08/22 09:56:22;;;;;;;2.45;1.00;;;;;;;;;;10391536;28;20115;-76
2022/08/22 10:01:28;;;;;;;1.85;0.75;;;;;;;;;;10403004;28;20124;-77
2022/08/22 10:06:43;;;;;;;1.30;0.82;;;;;;;;;;10405325;28;20104;-76
2022/08/22 10:11:53;;;;;;;0.85;0.57;;;;;;;;;;10395397;28;20449;-77
2022/08/22 10:17:09;;;;;;;1.67;0.50;;;;;;;;;;10404579;28;20045;-81
2022/08/22 10:22:43;;;;;;;1.20;0.75;;;;;;;;;;10430169;28;20033;-76
2022/08/22 10:27:52;;;;;;;;;;;;;;;;;;10395475;28;20048;-76
2022/08/22 10:33:03;;;;;;;0.93;0.52;;;;;;;;;;10403820;28;19921;-78
2022/08/22 10:38:13;;;;;;;0.65;0.50;;;;;;;;;;10398939;28;20481;-77
2022/08/22 10:43:21;;;;;;;1.00;0.68;;;;;;;;;;10412439;28;20034;-76
2022/08/22 10:48:41;;;;;;;1.50;0.60;;;;;;;;;;10404022;28;20064;-78
2022/08/22 10:53:58;;;;;;;1.67;0.75;;;;;;;;;;10402125;28;20041;-75
2022/08/22 10:59:18;;;;;;;0.75;0.50;;;;;;;;;;10403888;28;20051;-77
2022/08/22 11:04:43;;;;;;;2.10;0.82;;;;;;;;;;10404799;28;20382;-77
2022/08/22 11:09:54;;;;;;;0.98;0.75;;;;;;;;;;10404546;28;20056;-80
2022/08/22 11:15:08;;;;;;;1.00;0.68;;;;;;;;;;10402353;28;20045;-80
2022/08/22 11:20:19;;;;;;;1.63;1.25;;;;;;;;;;10402234;28;20041;-78
2022/08/22 11:25:48;;;;;;;2.60;1.02;;;;;;;;;;10401146;28;20026;-77
2022/08/22 11:31:05;;;;;;;2.17;1.15;;;;;;;;;;10400197;28;20045;-77
2022/08/22 11:36:21;;;;;;;0.85;0.63;;;;;;;;;;10392565;28;20045;-78
2022/08/22 11:41:28;;;;;;;1.20;0.65;;;;;;;;;;10388707;28;20045;-76
2022/08/22 11:46:35;;;;;;;2.20;0.90;;;;;;;;;;10398452;28;20090;-76
2022/08/22 11:52:03;;;;;;;1.70;0.95;;;;;;;;;;10396175;28;20053;-76
2022/08/22 11:57:13;;;;;;;1.35;0.73;;;;;;;;;;10390685;28;20049;-77
2022/08/22 12:02:25;;;;;;;2.05;0.77;;;;;;;;;;10397123;28;20054;-78
2022/08/22 12:07:31;;;;;;;1.05;0.80;;;;;;;;;;10428542;28;20045;-76
2022/08/22 12:12:59;;;;;;;1.25;0.80;;;;;;;;;;10398371;28;20493;-77
2022/08/22 12:18:26;;;;;;;1.42;0.75;;;;;;;;;;10398266;28;20047;-81
2022/08/22 12:23:57;;;;;;;1.98;0.82;;;;;;;;;;10396608;28;20060;-76
2022/08/22 12:29:16;;;;;;;1.00;0.60;;;;;;;;;;10388601;28;20053;-76
2022/08/22 12:34:31;;;;;;;2.55;0.82;;;;;;;;;;10396809;28;20029;-78
2022/08/22 12:39:47;;;;;;;1.95;0.60;;;;;;;;;;10399095;28;20041;-76
2022/08/22 12:45:11;;;;;;;1.10;0.60;;;;;;;;;;10397252;28;20433;-78
2022/08/22 12:50:25;;;;;;;0.85;0.60;;;;;;;;;;10391827;28;20061;-77
2022/08/22 12:55:55;;;;;;;1.07;0.73;;;;;;;;;;10406148;28;20064;-77
2022/08/22 13:01:02;;;;;;;0.80;0.60;;;;;;;;;;10412809;28;20050;-76
2022/08/22 13:06:54;;;;;;;0.88;0.73;;;;;;;;;;10406570;28;20103;-77
2022/08/22 13:12:02;;;;;;;1.23;0.73;;;;;;;;;;10383748;28;20091;-76
2022/08/22 13:17:12;;;;;;;2.90;1.23;;;;;;;;;;10399113;28;20576;-76
2022/08/22 13:22:23;;;;;;;0.60;0.52;;;;;;;;;;10406388;28;20440;-76
2022/08/22 13:27:31;;;;;;;1.25;0.95;;;;;;;;;;10406403;28;20046;-78
2022/08/22 13:32:39;;;;;;;1.55;0.80;;;;;;;;;;10420556;28;20148;-77
2022/08/22 13:37:48;;;;;;;0.88;0.50;;;;;;;;;;10419193;28;20058;-77
2022/08/22 13:43:01;;;;;;;0.98;0.80;;;;;;;;;;10417180;28;20137;-77
2022/08/22 13:48:09;;;;;;;0.98;0.52;;;;;;;;;;10407535;28;20045;-77
2022/08/22 13:53:26;;;;;;;1.55;0.70;;;;;;;;;;10414594;28;20120;-77
2022/08/22 13:58:38;;;;;;;1.27;0.77;;;;;;;;;;10422732;28;20034;-77
2022/08/22 14:03:47;;;;;;;0.70;0.70;;;;;;;;;;10413550;28;20092;-77
2022/08/22 14:08:56;;;;;;;1.48;0.98;;;;;;;;;;10417174;28;20064;-78
2022/08/22 14:14:02;;;;;;;1.40;0.70;;;;;;;;;;10412595;28;20535;-77
2022/08/22 14:19:09;;;;;;;1.23;0.93;;;;;;;;;;10415597;28;20575;-78
2022/08/22 14:24:21;;;;;;;1.10;0.70;;;;;;;;;;10416098;28;20033;-76
2022/08/22 14:29:26;;;;;;;0.85;0.50;;;;;;;;;;10413013;28;20048;-77
2022/08/22 14:34:33;;;;;;;0.60;0.60;;;;;;;;;;10410694;28;20042;-78
2022/08/22 14:39:43;;;;;;;0.75;0.60;;;;;;;;;;10410802;28;20513;-79
2022/08/22 14:45:00;;;;;;;1.35;0.52;;;;;;;;;;10408332;28;20454;-77
2022/08/22 14:50:09;;;;;;;2.05;0.70;;;;;;;;;;10434970;28;20049;-78
2022/08/22 14:55:21;;;;;;;0.95;0.60;;;;;;;;;;10410299;28;20061;-75
2022/08/22 15:00:29;;;;;;;1.08;0.57;;;;;;;;;;10405285;28;20361;-78
2022/08/22 15:05:42;;;;;;;1.35;0.70;;;;;;;;;;10407445;28;20037;-78
2022/08/22 15:10:47;;;;;;;0.70;0.43;;;;;;;;;;10409212;28;20053;-78
2022/08/22 15:15:51;;;;;;;1.02;0.50;;;;;;;;;;10410192;28;20045;-76
2022/08/22 15:21:02;;;;;;;0.70;0.50;;;;;;;;;;10407625;28;20038;-78
2022/08/22 15:26:19;;;;;;;1.88;0.50;;;;;;;;;;10399374;28;20107;-78
2022/08/22 15:31:24;;;;;;;1.38;0.40;;;;;;;;;;10407060;28;20048;-75
2022/08/22 15:36:27;;;;;;;1.23;0.50;;;;;;;;;;10406266;28;20050;-76
2022/08/22 15:41:44;;;;;;;1.00;0.50;;;;;;;;;;10440700;28;20064;-74
2022/08/22 15:47:07;;;;;;;1.10;0.52;;;;;;;;;;10407168;28;20053;-77
2022/08/22 15:52:23;;;;;;;0.60;0.30;;;;;;;;;;10403461;28;20061;-75
2022/08/22 15:57:30;;;;;;;0.75;0.40;;;;;;;;;;10411773;28;20146;-78
2022/08/22 16:02:37;;;;;;;1.00;0.63;;;;;;;;;;10408888;28;20048;-79
2022/08/22 16:07:43;;;;;;;0.52;0.30;;;;;;;;;;10410147;28;20057;-77
2022/08/22 16:13:10;;;;;;;1.10;0.40;;;;;;;;;;10411004;28;20037;-78
2022/08/22 16:18:46;;;;;;;0.30;0.30;;;;;;;;;;10402480;28;20053;-76
2022/08/22 16:24:27;;;;;;;1.15;0.38;;;;;;;;;;10408451;28;20045;-77
2022/08/22 16:29:36;;;;;;;1.65;0.60;;;;;;;;;;10408158;28;20049;-77
2022/08/22 16:34:42;;;;;;;1.77;0.73;;;;;;;;;;10406887;28;20053;-78
2022/08/22 16:39:48;;;;;;;2.08;0.80;;;;;;;;;;10405900;28;20587;-77
2022/08/22 16:44:58;;;;;;;1.50;0.52;;;;;;;;;;10406481;28;20444;-79
2022/08/22 16:50:06;;;;;;;1.60;0.65;;;;;;;;;;10399463;28;20103;-77
2022/08/22 16:55:43;;;;;;;0.80;0.63;;;;;;;;;;10405947;28;20080;-78
2022/08/22 17:00:51;;;;;;;0.77;0.50;;;;;;;;;;10404763;28;20559;-77
2022/08/22 17:06:13;;;;;;;1.65;0.60;;;;;;;;;;10403928;28;20041;-75
2022/08/22 17:11:28;;;;;;;1.33;0.68;;;;;;;;;;10404531;28;20079;-77
2022/08/22 17:16:50;;;;;;;1.02;0.60;;;;;;;;;;10435702;28;20535;-77
2022/08/22 17:21:58;;;;;;;1.20;0.70;;;;;;;;;;10402414;28;20046;-78
2022/08/22 17:27:12;;;;;;;0.88;0.60;;;;;;;;;;10402948;28;20095;-77
2022/08/22 17:32:25;;;;;;;0.50;0.45;;;;;;;;;;10402919;28;20037;-78
2022/08/22 17:37:41;;;;;;;0.63;0.45;;;;;;;;;;10401763;28;20052;-77
2022/08/22 17:43:25;;;;;;;1.15;0.60;;;;;;;;;;10404142;28;20045;-78
2022/08/22 17:48:34;;;;;;;0.77;0.50;;;;;;;;;;10372135;28;20425;-77
2022/08/22 17:53:44;;;;;;;0.50;0.50;;;;;;;;;;10385472;28;20129;-77
2022/08/22 17:58:53;;;;;;;2.05;0.57;;;;;;;;;;10362735;28;20058;-78
2022/08/22 18:04:04;;;;;;;1.33;0.70;;;;;;;;;;10361890;28;20061;-78
2022/08/22 18:09:18;;;;;;;1.10;0.68;;;;;;;;;;10355366;28;20108;-76
2022/08/22 18:14:28;;;;;;;1.20;0.60;;;;;;;;;;10362709;28;20567;-75
2022/08/22 18:19:41;;;;;;;1.33;0.90;;;;;;;;;;10365606;28;20682;-78
2022/08/22 18:24:49;;;;;;;0.57;0.55;;;;;;;;;;10373399;28;20065;-74
2022/08/22 18:29:57;;;;;;;1.30;0.85;;;;;;;;;;10369595;28;20056;-76
2022/08/22 18:40:51;;;;;;;1.85;0.80;;;;;;;;;;10379524;28;20060;-76
2022/08/22 18:45:58;;;;;;;1.17;0.80;;;;;;;;;;10373863;28;20042;-77
2022/08/22 18:51:23;;;;;;;1.50;1.00;;;;;;;;;;10376696;28;20045;-74
2022/08/22 18:56:44;;;;;;;1.90;0.90;;;;;;;;;;10408324;28;20405;-76
2022/08/22 19:02:00;;;;;;;1.25;0.80;;;;;;;;;;10395399;28;20038;-78
2022/08/22 19:07:28;;;;;;;0.77;0.63;;;;;;;;;;10388636;28;20041;-76
2022/08/22 19:12:48;;;;;;;3.35;0.80;;;;;;;;;;10373148;28;20041;-77
2022/08/22 19:18:08;;;;;;;1.38;0.88;;;;;;;;;;10384606;28;20042;-76
2022/08/22 19:23:46;;;;;;;1.88;0.70;;;;;;;;;;10392481;28;20045;-76
2022/08/22 19:28:50;;;;;;;1.05;0.73;;;;;;;;;;10369446;28;20041;-78
2022/08/22 19:34:13;;;;;;;0.90;0.77;;;;;;;;;;10378746;28;20057;-78
2022/08/22 19:39:52;;;;;;;1.10;0.80;;;;;;;;;;10414494;28;20045;-77
2022/08/22 19:45:03;;;;;;;1.77;0.90;;;;;;;;;;10404363;28;20033;-76
2022/08/22 19:50:12;;;;;;;0.95;0.73;;;;;;;;;;10397511;28;20052;-78
2022/08/22 19:55:22;;;;;;;1.30;0.80;;;;;;;;;;10400353;28;20052;-76
2022/08/22 20:00:45;;;;;;;1.10;0.70;;;;;;;;;;10398106;28;20567;-76
2022/08/22 20:05:57;;;;;;;0.88;0.73;;;;;;;;;;10398319;28;20454;-76
2022/08/22 20:11:18;;;;;;;0.88;0.68;;;;;;;;;;10406228;28;20053;-76
2022/08/22 20:16:23;;;;;;;2.15;0.70;;;;;;;;;;10416282;28;20025;-77
2022/08/22 20:21:51;;;;;;;1.00;0.52;;;;;;;;;;10383343;28;20053;-77
2022/08/22 20:26:57;;;;;;;1.40;0.77;;;;;;;;;;10359827;28;20665;-77
2022/08/22 20:32:18;;;;;;;2.08;0.73;;;;;;;;;;10361567;28;20042;-78
2022/08/22 20:37:29;;;;;;;1.40;0.90;;;;;;;;;;10359091;28;20046;-77
2022/08/22 20:42:58;;;;;;;1.13;0.70;;;;;;;;;;10356504;28;20068;-77
2022/08/22 20:48:02;;;;;;;1.00;0.57;;;;;;;;;;10383966;28;20541;-77
2022/08/22 20:53:11;;;;;;;1.45;0.70;;;;;;;;;;10361728;28;20500;-77
2022/08/22 20:58:24;;;;;;;2.00;0.68;;;;;;;;;;10361096;28;20038;-77
2022/08/22 21:03:36;;;;;;;1.45;0.85;;;;;;;;;;10363372;28;20038;-78
2022/08/22 21:08:41;;;;;;;1.60;0.80;;;;;;;;;;10364108;28;20080;-79
2022/08/22 21:13:46;;;;;;;1.10;0.52;;;;;;;;;;10365930;28;20661;-78
2022/08/22 21:18:52;;;;;;;1.20;0.88;;;;;;;;;;10366059;28;20140;-77
2022/08/22 21:23:56;;;;;;;;;;;;;;;;;;10397059;28;20046;-79
2022/08/22 21:29:06;;;;;;;3.30;0.90;;;;;;;;;;10371281;28;19921;-79
2022/08/22 21:34:14;;;;;;;1.40;0.80;;;;;;;;;;10363146;28;20042;-76
2022/08/22 21:39:22;;;;;;;1.00;0.60;;;;;;;;;;10363585;28;20041;-79
2022/08/22 21:44:31;;;;;;;0.85;0.70;;;;;;;;;;10365062;28;20046;-79
2022/08/22 21:49:35;;;;;;;2.17;0.90;;;;;;;;;;10357312;28;20050;-80
2022/08/22 21:54:41;;;;;;;0.65;0.60;;;;;;;;;;10366644;28;20513;-78
2022/08/22 21:59:48;;;;;;;0.95;0.77;;;;;;;;;;10361518;28;20045;-81
2022/08/22 22:04:51;;;;;;;1.10;0.82;;;;;;;;;;10362477;28;20088;-79
2022/08/22 22:09:55;;;;;;;1.48;1.00;;;;;;;;;;10362503;28;20134;-78
2022/08/22 22:15:00;;;;;;;1.20;0.70;;;;;;;;;;10360252;28;20042;-78
2022/08/22 22:20:05;;;;;;;1.67;1.08;;;;;;;;;;10362594;28;20042;-79
2022/08/22 22:25:09;;;;;;;0.83;0.80;;;;;;;;;;10361931;28;20456;-77
2022/08/22 22:30:16;;;;;;;1.95;0.88;;;;;;;;;;10361172;28;20045;-78
2022/08/22 22:35:20;;;;;;;2.55;1.30;;;;;;;;;;10369513;28;20050;-78
2022/08/22 22:40:23;;;;;;;1.15;0.90;;;;;;;;;;10360119;28;20405;-79
2022/08/22 22:45:28;;;;;;;1.38;0.90;;;;;;;;;;10364159;28;20107;-79
2022/08/22 22:50:32;;;;;;;1.00;0.75;;;;;;;;;;10363288;28;20494;-79
2022/08/22 22:55:36;;;;;;;1.90;0.82;;;;;;;;;;10358846;28;20042;-79
2022/08/22 23:00:41;;;;;;;1.30;0.70;;;;;;;;;;10359454;28;20061;-78
2022/08/22 23:05:44;;;;;;;1.85;0.90;;;;;;;;;;10359190;28;20073;-78
2022/08/22 23:10:48;;;;;;;1.88;0.88;;;;;;;;;;10359142;28;20153;-78
2022/08/22 23:15:52;;;;;;;1.10;1.00;;;;;;;;;;10358934;28;20128;-78
2022/08/22 23:20:56;;;;;;;1.17;1.00;;;;;;;;;;10358550;28;20126;-78
2022/08/22 23:25:59;;;;;;;2.15;0.90;;;;;;;;;;10357183;28;20417;-78
2022/08/22 23:31:13;;;;;;;0.95;0.88;;;;;;;;;;10357741;28;20055;-80
2022/08/22 23:36:19;;;;;;;1.45;0.80;;;;;;;;;;10358783;28;20762;-79
2022/08/22 23:41:23;;;;;;;1.63;0.73;;;;;;;;;;10358539;28;20386;-78
2022/08/22 23:46:28;;;;;;;0.90;0.77;;;;;;;;;;10356979;28;20124;-78
2022/08/22 23:51:31;;;;;;;2.63;1.42;;;;;;;;;;10358130;28;20486;-79
2022/08/22 23:56:39;;;;;;;;;;;;;;;;;;10390694;28;20045;-80
